Time;durP1;ratioP1;P1;durP2;ratioP2;P2;SDS_P1;SDS_P2;PMS_P1;PMS_P2;Temp;Humidity;BMP_temperature;BMP_pressure;BME280_temperature;BME280_humidity;BME280_pressure;Samples;Min_cycle;Max_cycle;Signal;HPM_P1;HPM_P2
2022/05/06 00:00:18;;;;;;;12.43;10.63;;;;;;;;;;2073878;28;20181;-53
2022/05/06 00:01:19;;;;;;;15.20;11.60;;;;;;;;;;2073834;28;20184;-57
2022/05/06 00:02:19;;;;;;;12.13;10.25;;;;;;;;;;2073806;28;20173;-53
2022/05/06 00:03:19;;;;;;;12.52;10.48;;;;;;;;;;2064762;28;20204;-50
2022/05/06 00:04:19;;;;;;;12.10;10.35;;;;;;;;;;2064484;28;20924;-55
2022/05/06 00:05:20;;;;;;;11.73;10.02;;;;;;;;;;2073690;28;20181;-55
2022/05/06 00:06:20;;;;;;;11.38;9.68;;;;;;;;;;2073496;28;20260;-58
2022/05/06 00:07:20;;;;;;;10.63;9.63;;;;;;;;;;2073884;28;20243;-54
2022/05/06 00:08:20;;;;;;;10.00;8.98;;;;;;;;;;2073732;28;20169;-55
2022/05/06 00:09:21;;;;;;;10.05;8.40;;;;;;;;;;2073666;28;20184;-56
2022/05/06 00:10:21;;;;;;;10.40;8.90;;;;;;;;;;2073783;28;20203;-55
2022/05/06 00:11:22;;;;;;;10.38;9.27;;;;;;;;;;2073745;28;20227;-51
2022/05/06 00:12:23;;;;;;;10.43;9.30;;;;;;;;;;2073676;28;20785;-56
2022/05/06 00:13:23;;;;;;;9.80;8.02;;;;;;;;;;2073697;28;20184;-58
2022/05/06 00:14:24;;;;;;;10.98;9.35;;;;;;;;;;2072312;28;20176;-57
2022/05/06 00:15:24;;;;;;;10.82;9.13;;;;;;;;;;2064474;28;20200;-54
2022/05/06 00:16:25;;;;;;;9.63;8.75;;;;;;;;;;2071654;28;20176;-55
2022/05/06 00:17:26;;;;;;;12.45;9.38;;;;;;;;;;2073407;28;20176;-56
2022/05/06 00:18:26;;;;;;;10.82;9.70;;;;;;;;;;2073439;28;20185;-55
2022/05/06 00:19:26;;;;;;;11.07;10.02;;;;;;;;;;2073602;28;20204;-53
2022/05/06 00:20:26;;;;;;;9.95;9.02;;;;;;;;;;2073696;28;20227;-52
2022/05/06 00:21:27;;;;;;;10.43;9.43;;;;;;;;;;2073539;28;20760;-52
2022/05/06 00:22:27;;;;;;;11.55;10.38;;;;;;;;;;2073822;28;20539;-52
2022/05/06 00:23:28;;;;;;;10.85;9.75;;;;;;;;;;2073515;28;20205;-52
2022/05/06 00:24:31;;;;;;;11.48;9.77;;;;;;;;;;2073152;28;20199;-55
2022/05/06 00:25:31;;;;;;;11.25;10.15;;;;;;;;;;2073500;28;20165;-55
2022/05/06 00:26:31;;;;;;;11.23;10.10;;;;;;;;;;2073678;28;20189;-52
2022/05/06 00:27:32;;;;;;;10.98;9.85;;;;;;;;;;2063708;28;20176;-56
2022/05/06 00:28:32;;;;;;;11.20;9.88;;;;;;;;;;2058530;28;20189;-55
2022/05/06 00:29:33;;;;;;;10.73;9.73;;;;;;;;;;2064862;28;20178;-53
2022/05/06 00:30:33;;;;;;;11.65;10.38;;;;;;;;;;2065001;28;20177;-57
2022/05/06 00:31:34;;;;;;;11.02;9.93;;;;;;;;;;2073648;28;20523;-56
2022/05/06 00:32:35;;;;;;;11.40;10.27;;;;;;;;;;2073539;28;20665;-53
2022/05/06 00:33:35;;;;;;;13.98;10.68;;;;;;;;;;2073604;28;20181;-57
2022/05/06 00:34:35;;;;;;;11.13;9.90;;;;;;;;;;2073203;28;20191;-52
2022/05/06 00:35:36;;;;;;;12.75;10.02;;;;;;;;;;2064484;28;20672;-53
2022/05/06 00:36:37;;;;;;;10.60;9.52;;;;;;;;;;2064623;28;20190;-55
2022/05/06 00:37:37;;;;;;;12.35;9.98;;;;;;;;;;2073749;28;20168;-52
2022/05/06 00:38:38;;;;;;;10.48;9.60;;;;;;;;;;2064593;28;20254;-51
2022/05/06 00:39:38;;;;;;;10.93;9.82;;;;;;;;;;2064654;28;20581;-54
2022/05/06 00:40:38;;;;;;;10.48;9.18;;;;;;;;;;2064678;28;20193;-54
2022/05/06 00:41:39;;;;;;;10.80;9.63;;;;;;;;;;2073591;28;20715;-53
2022/05/06 00:42:39;;;;;;;11.05;9.60;;;;;;;;;;2073233;28;20520;-57
2022/05/06 00:43:40;;;;;;;10.57;9.57;;;;;;;;;;2073676;28;20173;-53
2022/05/06 00:44:40;;;;;;;11.05;9.10;;;;;;;;;;2073032;28;20165;-57
2022/05/06 00:46:01;;;;;;;11.90;9.40;;;;;;;;;;2073576;28;20222;-56
2022/05/06 00:47:01;;;;;;;9.73;8.73;;;;;;;;;;2064016;28;20201;-56
2022/05/06 00:48:02;;;;;;;10.82;9.52;;;;;;;;;;2056643;28;20208;-55
2022/05/06 00:49:02;;;;;;;9.80;8.98;;;;;;;;;;2056257;28;20167;-53
2022/05/06 00:50:04;;;;;;;11.43;8.95;;;;;;;;;;2061154;28;20843;-53
2022/05/06 00:51:06;;;;;;;13.05;8.98;;;;;;;;;;2064697;28;20170;-52
2022/05/06 00:52:07;;;;;;;11.05;9.55;;;;;;;;;;2073668;28;20167;-57
2022/05/06 00:53:08;;;;;;;9.65;8.75;;;;;;;;;;2064916;28;20188;-56
2022/05/06 00:54:08;;;;;;;10.23;9.18;;;;;;;;;;2065011;28;20174;-54
2022/05/06 00:55:08;;;;;;;9.88;8.85;;;;;;;;;;2073551;28;20181;-51
2022/05/06 00:56:10;;;;;;;10.75;9.35;;;;;;;;;;2065317;28;20307;-56
2022/05/06 00:57:11;;;;;;;9.75;8.85;;;;;;;;;;2065361;28;20181;-54
2022/05/06 00:58:13;;;;;;;10.25;8.82;;;;;;;;;;2074045;28;20539;-56
2022/05/06 00:59:14;;;;;;;10.50;9.27;;;;;;;;;;2065037;28;20185;-54
2022/05/06 01:00:20;;;;;;;10.07;8.52;;;;;;;;;;2064400;28;20181;-53
2022/05/06 01:01:20;;;;;;;9.85;8.50;;;;;;;;;;2064831;28;20192;-53
2022/05/06 01:02:23;;;;;;;13.27;8.68;;;;;;;;;;2056486;28;20603;-51
2022/05/06 01:03:23;;;;;;;9.85;8.73;;;;;;;;;;2062647;28;20749;-56
2022/05/06 01:04:23;;;;;;;10.25;8.82;;;;;;;;;;2061258;28;20277;-53
2022/05/06 01:05:24;;;;;;;10.45;8.82;;;;;;;;;;2070154;28;20173;-55
2022/05/06 01:06:25;;;;;;;9.95;8.95;;;;;;;;;;2072904;28;20621;-57
2022/05/06 01:07:27;;;;;;;11.45;9.18;;;;;;;;;;2065299;28;20174;-54
2022/05/06 01:08:29;;;;;;;12.90;9.07;;;;;;;;;;2064807;28;20197;-51
2022/05/06 01:09:29;;;;;;;10.02;8.30;;;;;;;;;;2057198;28;20206;-53
2022/05/06 01:10:30;;;;;;;12.05;8.55;;;;;;;;;;2057003;28;20706;-51
2022/05/06 01:11:32;;;;;;;12.02;8.85;;;;;;;;;;2056539;28;20209;-53
2022/05/06 01:12:36;;;;;;;12.15;8.95;;;;;;;;;;2054081;28;20187;-50
2022/05/06 01:13:43;;;;;;;9.75;8.68;;;;;;;;;;2053117;28;20246;-53
2022/05/06 01:14:47;;;;;;;9.48;8.48;;;;;;;;;;2050750;28;20193;-55
2022/05/06 01:15:55;;;;;;;10.13;9.13;;;;;;;;;;2060334;28;20162;-52
2022/05/06 01:16:59;;;;;;;9.95;8.95;;;;;;;;;;2072991;28;20275;-52
2022/05/06 01:18:00;;;;;;;9.25;8.35;;;;;;;;;;2073813;28;20196;-53
2022/05/06 01:19:00;;;;;;;9.35;8.43;;;;;;;;;;2067122;28;20261;-54
2022/05/06 01:20:01;;;;;;;9.52;8.60;;;;;;;;;;2065169;28;20247;-52
2022/05/06 01:21:03;;;;;;;10.27;8.90;;;;;;;;;;2064782;28;20173;-56
2022/05/06 01:22:03;;;;;;;10.10;9.10;;;;;;;;;;2065108;28;20265;-53
2022/05/06 01:23:05;;;;;;;11.25;8.93;;;;;;;;;;2064791;28;20193;-51
2022/05/06 01:24:05;;;;;;;9.98;8.98;;;;;;;;;;2068316;28;20196;-56
2022/05/06 01:25:06;;;;;;;10.60;9.10;;;;;;;;;;2073782;28;20181;-51
2022/05/06 01:26:06;;;;;;;11.57;8.93;;;;;;;;;;2073472;28;20169;-54
2022/05/06 01:27:08;;;;;;;9.23;8.32;;;;;;;;;;2068121;28;20691;-55
2022/05/06 01:28:10;;;;;;;10.57;9.57;;;;;;;;;;2064914;28;20173;-57
2022/05/06 01:29:12;;;;;;;9.10;8.20;;;;;;;;;;2056327;28;20752;-57
2022/05/06 01:30:35;;;;;;;10.02;9.00;;;;;;;;;;2056877;28;20186;-59
2022/05/06 01:31:36;;;;;;;9.65;8.65;;;;;;;;;;2060007;28;20161;-59
2022/05/06 01:32:36;;;;;;;9.02;8.07;;;;;;;;;;2065265;28;20691;-59
2022/05/06 01:33:37;;;;;;;9.88;8.77;;;;;;;;;;2066079;28;20181;-56
2022/05/06 01:34:39;;;;;;;10.35;9.20;;;;;;;;;;2071097;28;20196;-59
2022/05/06 01:35:40;;;;;;;9.45;8.52;;;;;;;;;;2065682;28;20185;-55
2022/05/06 01:36:40;;;;;;;11.73;7.97;;;;;;;;;;2058110;28;20210;-57
2022/05/06 01:37:42;;;;;;;10.95;8.80;;;;;;;;;;2066035;28;20184;-58
2022/05/06 01:38:49;;;;;;;10.15;8.18;;;;;;;;;;2074107;28;20207;-58
2022/05/06 01:39:53;;;;;;;10.02;9.13;;;;;;;;;;2064978;28;20189;-57
2022/05/06 01:40:56;;;;;;;9.77;8.77;;;;;;;;;;2066004;28;20180;-59
2022/05/06 01:42:04;;;;;;;10.95;9.35;;;;;;;;;;2065305;28;20182;-57
2022/05/06 01:43:31;;;;;;;9.73;8.60;;;;;;;;;;2057707;28;20210;-59
2022/05/06 01:44:35;;;;;;;10.43;8.75;;;;;;;;;;2052938;28;20575;-58
2022/05/06 01:45:37;;;;;;;9.30;8.30;;;;;;;;;;2058354;28;20190;-58
2022/05/06 01:46:38;;;;;;;11.88;8.50;;;;;;;;;;2053565;28;20198;-57
2022/05/06 01:47:41;;;;;;;9.25;8.35;;;;;;;;;;2057725;28;20277;-56
2022/05/06 01:48:46;;;;;;;8.57;7.78;;;;;;;;;;2064020;28;20177;-56
2022/05/06 01:49:48;;;;;;;8.63;7.80;;;;;;;;;;2067390;28;20169;-57
2022/05/06 01:50:49;;;;;;;9.70;8.80;;;;;;;;;;2066610;28;20197;-54
2022/05/06 01:51:50;;;;;;;9.30;8.30;;;;;;;;;;2072411;28;20177;-58
2022/05/06 01:52:58;;;;;;;10.15;9.00;;;;;;;;;;2055756;28;20311;-55
2022/05/06 01:53:58;;;;;;;8.15;7.45;;;;;;;;;;2064925;28;20169;-56
2022/05/06 01:54:59;;;;;;;10.70;7.55;;;;;;;;;;2056981;28;20204;-56
2022/05/06 01:56:06;;;;;;;9.13;8.32;;;;;;;;;;2057263;28;20165;-52
2022/05/06 01:57:12;;;;;;;9.45;7.97;;;;;;;;;;2062295;28;20255;-56
2022/05/06 01:58:12;;;;;;;8.57;7.85;;;;;;;;;;2073030;28;20607;-52
2022/05/06 01:59:18;;;;;;;8.90;8.07;;;;;;;;;;2061973;28;20170;-54
2022/05/06 02:00:20;;;;;;;9.57;8.52;;;;;;;;;;2044838;28;20171;-55
2022/05/06 02:01:22;;;;;;;10.50;8.82;;;;;;;;;;2055931;28;20193;-62
2022/05/06 02:02:23;;;;;;;11.02;8.90;;;;;;;;;;2056099;28;20181;-57
2022/05/06 02:06:08;;;;;;;9.05;8.25;;;;;;;;;;2068900;28;20244;-56
2022/05/06 02:07:12;;;;;;;9.40;8.57;;;;;;;;;;2064918;28;20174;-54
2022/05/06 02:08:14;;;;;;;10.02;9.23;;;;;;;;;;2064585;28;20169;-58
2022/05/06 02:09:16;;;;;;;9.43;8.45;;;;;;;;;;2056375;28;20178;-54
2022/05/06 02:10:43;;;;;;;9.93;9.02;;;;;;;;;;2060270;28;20181;-54
2022/05/06 02:11:43;;;;;;;10.80;9.32;;;;;;;;;;2064494;28;20182;-52
2022/05/06 02:12:47;;;;;;;9.43;8.50;;;;;;;;;;2056373;28;20244;-53
2022/05/06 02:13:59;;;;;;;9.18;8.27;;;;;;;;;;2057434;28;20158;-50
2022/05/06 02:15:22;;;;;;;8.77;7.90;;;;;;;;;;2070250;28;20165;-53
2022/05/06 02:16:43;;;;;;;10.63;8.13;;;;;;;;;;2064383;28;20299;-54
2022/05/06 02:18:04;;;;;;;9.68;8.23;;;;;;;;;;2066981;28;20243;-52
2022/05/06 02:19:26;;;;;;;10.05;8.85;;;;;;;;;;2064310;28;20169;-56
2022/05/06 02:20:48;;;;;;;10.40;8.88;;;;;;;;;;2059444;28;20162;-53
2022/05/06 02:22:07;;;;;;;8.80;8.00;;;;;;;;;;2056783;28;20597;-52
2022/05/06 02:23:30;;;;;;;10.30;8.90;;;;;;;;;;2049687;28;20229;-53
2022/05/06 02:24:55;;;;;;;10.70;9.60;;;;;;;;;;2051462;28;20615;-54
2022/05/06 02:26:31;;;;;;;11.77;10.05;;;;;;;;;;2054425;28;20233;-54
2022/05/06 02:27:36;;;;;;;10.90;9.90;;;;;;;;;;2057799;28;20175;-54
2022/05/06 02:28:36;;;;;;;10.75;9.65;;;;;;;;;;2064608;28;20192;-55
2022/05/06 02:33:12;;;;;;;10.38;9.35;;;;;;;;;;2064422;28;20166;-55
2022/05/06 02:33:43;;;;;;;10.75;9.70;;;;;;;;;;2059348;28;20182;-54
2022/05/06 02:34:52;;;;;;;10.68;9.52;;;;;;;;;;2057487;28;20170;-57
2022/05/06 02:35:53;;;;;;;10.20;9.25;;;;;;;;;;2064774;28;20630;-57
2022/05/06 02:36:59;;;;;;;10.07;9.13;;;;;;;;;;2057779;28;20249;-55
2022/05/06 02:38:11;;;;;;;9.90;8.90;;;;;;;;;;2065998;28;20177;-56
2022/05/06 02:39:12;;;;;;;16.52;9.63;;;;;;;;;;2065996;28;20249;-58
2022/05/06 02:40:13;;;;;;;10.65;9.60;;;;;;;;;;2065901;28;20204;-56
2022/05/06 02:41:16;;;;;;;10.68;9.68;;;;;;;;;;2066219;28;20223;-55
2022/05/06 02:42:24;;;;;;;10.93;9.75;;;;;;;;;;2065843;28;20181;-53
2022/05/06 02:43:25;;;;;;;10.25;9.13;;;;;;;;;;2065825;28;20205;-56
2022/05/06 02:44:28;;;;;;;10.32;9.32;;;;;;;;;;2065333;28;20560;-56
2022/05/06 02:45:30;;;;;;;10.68;9.18;;;;;;;;;;2057835;28;20182;-53
2022/05/06 02:46:33;;;;;;;9.80;8.80;;;;;;;;;;2066055;28;20712;-55
2022/05/06 02:47:35;;;;;;;9.68;8.77;;;;;;;;;;2065728;28;20170;-57
2022/05/06 02:48:36;;;;;;;9.75;8.85;;;;;;;;;;2065730;28;20181;-53
2022/05/06 02:49:36;;;;;;;10.48;8.43;;;;;;;;;;2066026;28;20166;-56
2022/05/06 02:50:37;;;;;;;8.95;7.97;;;;;;;;;;2057763;28;20178;-56
2022/05/06 02:51:37;;;;;;;9.70;8.77;;;;;;;;;;2066048;28;20169;-55
2022/05/06 02:52:38;;;;;;;11.30;8.93;;;;;;;;;;2075004;28;20168;-57
2022/05/06 02:53:38;;;;;;;9.52;8.50;;;;;;;;;;2066425;28;20619;-58
2022/05/06 02:54:40;;;;;;;11.73;9.43;;;;;;;;;;2057765;28;20186;-59
2022/05/06 02:55:42;;;;;;;9.65;8.50;;;;;;;;;;2058321;28;20190;-56
2022/05/06 02:56:46;;;;;;;9.50;8.60;;;;;;;;;;2066086;28;20323;-58
2022/05/06 02:57:47;;;;;;;10.43;7.65;;;;;;;;;;2068214;28;20181;-57
2022/05/06 02:58:47;;;;;;;9.93;8.55;;;;;;;;;;2074589;28;20563;-58
2022/05/06 02:59:48;;;;;;;10.25;8.25;;;;;;;;;;2066519;28;20169;-56
2022/05/06 03:00:51;;;;;;;10.07;8.43;;;;;;;;;;2066867;28;20988;-59
2022/05/06 03:01:52;;;;;;;12.32;8.63;;;;;;;;;;2064143;28;20174;-55
2022/05/06 03:02:52;;;;;;;9.07;8.10;;;;;;;;;;2057889;28;20327;-56
2022/05/06 03:03:53;;;;;;;9.32;8.40;;;;;;;;;;2058327;28;20171;-59
2022/05/06 03:04:55;;;;;;;9.88;8.98;;;;;;;;;;2058184;28;20200;-58
2022/05/06 03:05:55;;;;;;;9.07;8.25;;;;;;;;;;2066509;28;20174;-57
2022/05/06 03:06:56;;;;;;;9.48;8.45;;;;;;;;;;2066012;28;20197;-55
2022/05/06 03:08:07;;;;;;;9.50;8.70;;;;;;;;;;2058804;28;20229;-56
2022/05/06 03:09:08;;;;;;;9.68;8.88;;;;;;;;;;2065456;28;20662;-54
2022/05/06 03:10:10;;;;;;;12.07;8.75;;;;;;;;;;2057595;28;20721;-54
2022/05/06 03:11:11;;;;;;;11.20;9.02;;;;;;;;;;2057134;28;20734;-52
2022/05/06 03:12:20;;;;;;;9.80;8.80;;;;;;;;;;2058918;28;20281;-49
2022/05/06 03:13:29;;;;;;;10.65;8.63;;;;;;;;;;2057619;28;20660;-52
2022/05/06 03:14:33;;;;;;;8.57;7.38;;;;;;;;;;2058834;28;20237;-51
2022/05/06 03:15:54;;;;;;;9.35;8.05;;;;;;;;;;2065661;28;20277;-54
2022/05/06 03:16:54;;;;;;;9.00;8.07;;;;;;;;;;2065474;28;20200;-54
2022/05/06 03:17:56;;;;;;;10.50;8.68;;;;;;;;;;2065018;28;20185;-54
2022/05/06 03:18:56;;;;;;;9.73;8.73;;;;;;;;;;2065682;28;20165;-55
2022/05/06 03:19:57;;;;;;;9.73;8.75;;;;;;;;;;2074397;28;20633;-54
2022/05/06 03:20:57;;;;;;;8.85;8.02;;;;;;;;;;2074449;28;20219;-52
2022/05/06 03:21:58;;;;;;;10.27;8.85;;;;;;;;;;2065187;28;20231;-54
2022/05/06 03:22:59;;;;;;;9.55;8.45;;;;;;;;;;2057461;28;20209;-52
2022/05/06 03:24:00;;;;;;;9.82;8.85;;;;;;;;;;2048978;29;20166;-49
2022/05/06 03:25:02;;;;;;;9.88;8.63;;;;;;;;;;2049890;28;20315;-50
2022/05/06 03:26:02;;;;;;;9.30;7.95;;;;;;;;;;2065618;28;20161;-53
2022/05/06 03:27:03;;;;;;;9.30;8.35;;;;;;;;;;2074082;28;20192;-57
2022/05/06 03:28:07;;;;;;;9.60;8.70;;;;;;;;;;2065337;28;20213;-51
2022/05/06 03:29:07;;;;;;;9.40;8.50;;;;;;;;;;2065947;28;20742;-54
2022/05/06 03:30:08;;;;;;;8.75;7.93;;;;;;;;;;2081642;28;20219;-56
2022/05/06 03:31:09;;;;;;;11.05;8.90;;;;;;;;;;2073342;28;20254;-54
2022/05/06 03:32:12;;;;;;;9.20;8.30;;;;;;;;;;2070990;28;20177;-53
2022/05/06 03:33:13;;;;;;;9.88;9.00;;;;;;;;;;2065048;28;20188;-52
2022/05/06 03:34:15;;;;;;;10.27;8.52;;;;;;;;;;2064895;28;20646;-54
2022/05/06 03:35:17;;;;;;;9.90;8.90;;;;;;;;;;2057927;28;20190;-56
2022/05/06 03:36:17;;;;;;;8.90;8.00;;;;;;;;;;2065468;28;20212;-57
2022/05/06 03:37:38;;;;;;;9.65;8.55;;;;;;;;;;2065471;28;20249;-53
2022/05/06 03:38:39;;;;;;;9.45;8.55;;;;;;;;;;2057536;28;20250;-54
2022/05/06 03:39:40;;;;;;;9.50;8.70;;;;;;;;;;2057394;28;20191;-53
2022/05/06 03:40:41;;;;;;;8.90;7.95;;;;;;;;;;2049307;28;20174;-54
2022/05/06 03:41:42;;;;;;;9.73;8.73;;;;;;;;;;2049292;28;20183;-55
2022/05/06 03:42:42;;;;;;;9.63;8.55;;;;;;;;;;2054533;28;20198;-55
2022/05/06 03:43:43;;;;;;;9.98;8.50;;;;;;;;;;2057276;28;20210;-54
2022/05/06 03:44:50;;;;;;;9.50;8.55;;;;;;;;;;2056965;28;20639;-56
2022/05/06 03:45:51;;;;;;;10.05;8.88;;;;;;;;;;2057278;28;20178;-53
2022/05/06 03:46:54;;;;;;;9.65;8.68;;;;;;;;;;2057132;28;20280;-55
2022/05/06 03:48:05;;;;;;;9.40;8.38;;;;;;;;;;2050731;28;20259;-51
2022/05/06 03:49:09;;;;;;;10.60;8.50;;;;;;;;;;2049333;28;20238;-53
2022/05/06 03:51:31;;;;;;;10.15;8.93;;;;;;;;;;2067859;28;20221;-53
2022/05/06 03:52:39;;;;;;;10.40;8.57;;;;;;;;;;2060173;28;20205;-54
2022/05/06 03:53:40;;;;;;;13.23;9.13;;;;;;;;;;2065141;28;20676;-52
2022/05/06 03:54:41;;;;;;;10.25;8.88;;;;;;;;;;2064798;28;20630;-57
2022/05/06 03:55:42;;;;;;;10.35;9.35;;;;;;;;;;2057024;28;20174;-53
2022/05/06 03:56:42;;;;;;;9.05;8.25;;;;;;;;;;2065318;28;20193;-57
2022/05/06 03:57:44;;;;;;;9.85;8.95;;;;;;;;;;2064821;28;20177;-53
2022/05/06 03:58:45;;;;;;;9.52;8.57;;;;;;;;;;2056899;28;20166;-54
2022/05/06 03:59:48;;;;;;;9.63;8.50;;;;;;;;;;2065322;28;20169;-55
2022/05/06 04:00:52;;;;;;;9.57;8.65;;;;;;;;;;2065163;28;20680;-55
2022/05/06 04:01:53;;;;;;;10.00;9.10;;;;;;;;;;2065321;28;20214;-56
2022/05/06 04:03:00;;;;;;;10.10;9.10;;;;;;;;;;2065047;28;20185;-55
2022/05/06 04:04:01;;;;;;;12.13;9.60;;;;;;;;;;2056368;28;20216;-53
2022/05/06 04:05:06;;;;;;;11.07;9.52;;;;;;;;;;2061864;28;20232;-51
2022/05/06 04:06:06;;;;;;;9.45;8.55;;;;;;;;;;2065082;28;20209;-53
2022/05/06 04:07:07;;;;;;;11.93;9.30;;;;;;;;;;2065035;28;20255;-58
2022/05/06 04:08:16;;;;;;;9.80;8.80;;;;;;;;;;2066214;28;20216;-53
2022/05/06 04:09:18;;;;;;;10.38;8.63;;;;;;;;;;2057262;28;20607;-57
2022/05/06 04:10:18;;;;;;;9.95;9.05;;;;;;;;;;2048328;29;20175;-53
2022/05/06 04:11:20;;;;;;;10.63;9.15;;;;;;;;;;2049199;28;20171;-54
2022/05/06 04:12:24;;;;;;;10.57;8.98;;;;;;;;;;2064861;28;20212;-56
2022/05/06 04:13:31;;;;;;;9.90;8.90;;;;;;;;;;2057656;28;20170;-55
2022/05/06 04:14:32;;;;;;;10.32;9.35;;;;;;;;;;2056593;28;20610;-53
2022/05/06 04:15:33;;;;;;;10.07;9.07;;;;;;;;;;2056920;28;20182;-54
2022/05/06 04:16:34;;;;;;;11.40;9.30;;;;;;;;;;2064986;28;20324;-54
2022/05/06 04:17:37;;;;;;;9.65;8.65;;;;;;;;;;2057065;28;20190;-54
2022/05/06 04:18:38;;;;;;;10.20;9.07;;;;;;;;;;2056742;28;20538;-56
2022/05/06 04:23:29;;;;;;;11.13;9.52;;;;;;;;;;2048971;29;20190;-56
2022/05/06 04:23:40;;;;;;;10.77;9.00;;;;;;;;;;2058697;28;20210;-53
2022/05/06 04:24:49;;;;;;;9.38;8.50;;;;;;;;;;2057167;28;20178;-54
2022/05/06 04:25:50;;;;;;;12.68;9.32;;;;;;;;;;2065098;28;20173;-58
2022/05/06 04:26:53;;;;;;;12.13;9.13;;;;;;;;;;2056667;28;20198;-55
2022/05/06 04:27:53;;;;;;;10.45;9.35;;;;;;;;;;2055245;28;20202;-56
2022/05/06 04:28:54;;;;;;;13.02;9.38;;;;;;;;;;2056881;28;20178;-57
2022/05/06 04:29:55;;;;;;;11.10;9.40;;;;;;;;;;2046353;29;20183;-55
2022/05/06 04:30:57;;;;;;;10.60;9.52;;;;;;;;;;2049120;28;20545;-58
2022/05/06 04:31:58;;;;;;;9.95;9.00;;;;;;;;;;2057005;28;20181;-55
2022/05/06 04:32:59;;;;;;;12.13;9.50;;;;;;;;;;2064194;28;20261;-51
2022/05/06 04:34:00;;;;;;;10.77;9.68;;;;;;;;;;2061313;28;20631;-50
2022/05/06 04:35:08;;;;;;;10.48;9.25;;;;;;;;;;2050166;28;20261;-56
2022/05/06 04:36:09;;;;;;;14.07;8.68;;;;;;;;;;2055350;28;20229;-57
2022/05/06 04:37:11;;;;;;;12.98;9.48;;;;;;;;;;2056400;28;20178;-59
2022/05/06 04:38:16;;;;;;;10.85;9.15;;;;;;;;;;2054534;28;20683;-56
2022/05/06 04:39:17;;;;;;;10.70;9.00;;;;;;;;;;2064513;28;20189;-56
2022/05/06 04:40:20;;;;;;;9.60;8.70;;;;;;;;;;2056685;28;20185;-56
2022/05/06 04:41:21;;;;;;;13.05;8.70;;;;;;;;;;2056308;28;20166;-58
2022/05/06 04:42:21;;;;;;;11.02;8.27;;;;;;;;;;2064866;28;20721;-58
2022/05/06 04:43:22;;;;;;;11.00;9.10;;;;;;;;;;2064742;28;20228;-55
2022/05/06 04:44:25;;;;;;;13.60;10.15;;;;;;;;;;2063793;28;20657;-58
2022/05/06 04:45:28;;;;;;;14.43;9.40;;;;;;;;;;2064347;28;20269;-60
2022/05/06 04:46:37;;;;;;;9.70;8.60;;;;;;;;;;2062123;28;20678;-57
2022/05/06 04:47:37;;;;;;;9.90;8.98;;;;;;;;;;2064499;28;20245;-61
2022/05/06 04:48:39;;;;;;;11.10;9.00;;;;;;;;;;2064528;28;20192;-59
2022/05/06 04:49:43;;;;;;;9.55;8.65;;;;;;;;;;2065822;28;20176;-61
2022/05/06 04:50:44;;;;;;;9.75;8.85;;;;;;;;;;2056459;28;20579;-61
2022/05/06 04:51:46;;;;;;;9.88;8.88;;;;;;;;;;2056204;28;20261;-60
2022/05/06 04:52:47;;;;;;;10.77;9.43;;;;;;;;;;2052566;28;20182;-61
2022/05/06 04:53:47;;;;;;;9.75;8.75;;;;;;;;;;2053634;28;20170;-60
2022/05/06 04:54:47;;;;;;;10.82;9.20;;;;;;;;;;2048029;28;20239;-61
2022/05/06 04:55:49;;;;;;;9.88;8.98;;;;;;;;;;2048399;28;20594;-62
2022/05/06 04:56:53;;;;;;;9.85;8.85;;;;;;;;;;2055437;28;20209;-59
2022/05/06 04:58:02;;;;;;;10.52;9.15;;;;;;;;;;2061129;28;20216;-56
2022/05/06 04:59:03;;;;;;;10.30;9.18;;;;;;;;;;2056816;28;20182;-58
2022/05/06 05:00:13;;;;;;;11.40;9.40;;;;;;;;;;2058076;28;20190;-58
2022/05/06 05:01:18;;;;;;;11.05;9.43;;;;;;;;;;2057134;28;20209;-64
2022/05/06 05:02:21;;;;;;;10.70;9.02;;;;;;;;;;2057416;28;20713;-63
2022/05/06 05:03:25;;;;;;;10.35;9.05;;;;;;;;;;2052484;28;20197;-63
2022/05/06 05:04:29;;;;;;;9.07;8.27;;;;;;;;;;2056257;28;20178;-63
2022/05/06 05:05:36;;;;;;;19.90;9.88;;;;;;;;;;2056345;28;20158;-61
2022/05/06 05:06:38;;;;;;;10.20;9.15;;;;;;;;;;2070865;23;20200;-58
2022/05/06 05:07:42;;;;;;;12.80;7.90;;;;;;;;;;2078644;28;20180;-58
2022/05/06 05:08:46;;;;;;;12.63;8.75;;;;;;;;;;2081007;28;20165;-60
2022/05/06 05:09:48;;;;;;;18.80;9.63;;;;;;;;;;2073039;28;20169;-55
2022/05/06 05:10:51;;;;;;;9.85;8.65;;;;;;;;;;2073360;28;20180;-60
2022/05/06 05:11:54;;;;;;;12.05;8.68;;;;;;;;;;2073555;28;20342;-60
2022/05/06 05:13:05;;;;;;;12.02;9.07;;;;;;;;;;2081244;28;20240;-56
2022/05/06 05:14:08;;;;;;;13.40;8.73;;;;;;;;;;2081191;28;20168;-59
2022/05/06 05:15:12;;;;;;;31.40;10.00;;;;;;;;;;2073143;28;20161;-63
2022/05/06 05:16:13;;;;;;;12.40;8.88;;;;;;;;;;2083058;28;20421;-60
2022/05/06 05:17:14;;;;;;;20.27;9.82;;;;;;;;;;2084156;28;20199;-63
2022/05/06 05:18:19;;;;;;;9.85;8.85;;;;;;;;;;2075570;28;20168;-58
2022/05/06 05:19:20;;;;;;;13.57;8.90;;;;;;;;;;2070537;28;20180;-54
2022/05/06 05:20:27;;;;;;;14.75;8.50;;;;;;;;;;2076342;28;20544;-63
2022/05/06 05:21:30;;;;;;;9.73;8.73;;;;;;;;;;2074606;28;20562;-59
2022/05/06 05:22:33;;;;;;;12.93;8.77;;;;;;;;;;2075823;28;20181;-63
2022/05/06 05:23:37;;;;;;;11.73;9.07;;;;;;;;;;2082803;28;20867;-62
2022/05/06 05:24:40;;;;;;;11.93;9.13;;;;;;;;;;2072003;28;20808;-62
2022/05/06 05:25:41;;;;;;;9.52;8.52;;;;;;;;;;2081977;28;20168;-61
2022/05/06 05:26:43;;;;;;;9.80;8.25;;;;;;;;;;2074379;28;20854;-64
2022/05/06 05:27:44;;;;;;;10.88;9.05;;;;;;;;;;2073962;28;20382;-62
2022/05/06 05:28:52;;;;;;;28.80;11.70;;;;;;;;;;2074742;28;20180;-56
2022/05/06 05:29:52;;;;;;;14.45;9.55;;;;;;;;;;2081412;28;20204;-59
2022/05/06 05:30:55;;;;;;;10.43;8.45;;;;;;;;;;2073222;28;20190;-65
2022/05/06 05:31:55;;;;;;;11.88;9.07;;;;;;;;;;2072717;28;20183;-66
2022/05/06 05:32:57;;;;;;;10.73;9.63;;;;;;;;;;2080372;28;20168;-65
2022/05/06 05:33:58;;;;;;;11.02;10.02;;;;;;;;;;2072460;28;20302;-53
2022/05/06 05:34:58;;;;;;;13.40;10.57;;;;;;;;;;2080814;28;20204;-52
2022/05/06 05:36:02;;;;;;;20.90;15.38;;;;;;;;;;2080310;28;20198;-52
2022/05/06 05:37:03;;;;;;;16.02;14.32;;;;;;;;;;2081038;28;20279;-69
2022/05/06 05:38:03;;;;;;;14.18;12.68;;;;;;;;;;2072847;28;20242;-68
2022/05/06 05:39:05;;;;;;;13.55;12.07;;;;;;;;;;2072732;28;20241;-69
2022/05/06 05:40:06;;;;;;;21.65;18.55;;;;;;;;;;2072306;28;20188;-70
2022/05/06 05:41:11;;;;;;;16.45;14.70;;;;;;;;;;2078949;28;20227;-70
2022/05/06 05:42:13;;;;;;;13.35;12.07;;;;;;;;;;2080729;28;20168;-69
2022/05/06 05:48:35;;;;;;;18.50;13.20;;;;;;;;;;2081100;28;20157;-50
2022/05/06 05:49:38;;;;;;;15.20;11.35;;;;;;;;;;2080968;28;20169;-51
2022/05/06 05:50:39;;;;;;;12.63;11.43;;;;;;;;;;2080929;28;20186;-53
2022/05/06 05:51:41;;;;;;;14.55;12.40;;;;;;;;;;2081149;28;20259;-49
2022/05/06 05:52:41;;;;;;;11.73;10.55;;;;;;;;;;2072905;28;20625;-51
2022/05/06 05:53:42;;;;;;;16.85;14.38;;;;;;;;;;2072801;28;20172;-51
2022/05/06 05:54:43;;;;;;;11.57;10.15;;;;;;;;;;2072472;28;20173;-51
2022/05/06 05:55:43;;;;;;;11.38;10.25;;;;;;;;;;2065009;28;20280;-54
2022/05/06 05:56:49;;;;;;;11.40;10.30;;;;;;;;;;2080877;28;20680;-51
2022/05/06 05:57:49;;;;;;;10.95;9.90;;;;;;;;;;2080737;28;20184;-51
2022/05/06 05:58:51;;;;;;;11.02;10.02;;;;;;;;;;2072869;28;20180;-52
2022/05/06 05:59:54;;;;;;;14.02;11.55;;;;;;;;;;2080753;28;20613;-54
2022/05/06 06:00:56;;;;;;;14.73;9.73;;;;;;;;;;2072772;28;20238;-53
2022/05/06 06:02:02;;;;;;;12.55;10.57;;;;;;;;;;2073313;28;20311;-57
2022/05/06 06:03:03;;;;;;;24.85;16.88;;;;;;;;;;2080768;28;20343;-53
2022/05/06 06:04:07;;;;;;;11.05;9.60;;;;;;;;;;2080657;28;20204;-52
2022/05/06 06:05:08;;;;;;;10.38;8.52;;;;;;;;;;2072587;28;20188;-51
2022/05/06 06:06:09;;;;;;;15.73;11.15;;;;;;;;;;2080817;28;20648;-53
2022/05/06 06:07:11;;;;;;;54.47;17.80;;;;;;;;;;2078814;28;20215;-55
2022/05/06 06:08:11;;;;;;;17.58;10.40;;;;;;;;;;2080728;28;20168;-49
2022/05/06 06:09:14;;;;;;;14.85;11.57;;;;;;;;;;2080942;28;20168;-52
2022/05/06 06:10:15;;;;;;;12.70;11.13;;;;;;;;;;2081050;28;20184;-54
2022/05/06 06:11:17;;;;;;;11.80;9.27;;;;;;;;;;2080687;28;20220;-53
2022/05/06 06:12:20;;;;;;;16.77;9.20;;;;;;;;;;2082799;28;20172;-49
2022/05/06 06:13:22;;;;;;;15.80;10.18;;;;;;;;;;2082627;28;20225;-54
2022/05/06 06:14:22;;;;;;;14.05;8.38;;;;;;;;;;2082098;28;20180;-52
2022/05/06 06:15:23;;;;;;;12.63;7.70;;;;;;;;;;2084116;28;20230;-50
2022/05/06 06:16:24;;;;;;;10.30;9.27;;;;;;;;;;2090855;28;20210;-52
2022/05/06 06:17:24;;;;;;;13.48;9.43;;;;;;;;;;2091236;28;20174;-51
2022/05/06 06:18:28;;;;;;;27.70;14.68;;;;;;;;;;2090702;28;20163;-56
2022/05/06 06:19:31;;;;;;;14.30;11.77;;;;;;;;;;2083120;28;20188;-53
2022/05/06 06:20:31;;;;;;;14.00;9.68;;;;;;;;;;2082214;28;20172;-60
2022/05/06 06:21:32;;;;;;;14.05;10.55;;;;;;;;;;2081822;28;20176;-52
2022/05/06 06:22:32;;;;;;;9.63;8.15;;;;;;;;;;2090491;28;20171;-57
2022/05/06 06:23:36;;;;;;;13.75;9.93;;;;;;;;;;2090368;28;20222;-56
2022/05/06 06:24:36;;;;;;;15.70;9.23;;;;;;;;;;2090134;28;20167;-54
2022/05/06 06:25:37;;;;;;;8.75;7.75;;;;;;;;;;2081883;28;20674;-53
2022/05/06 06:26:38;;;;;;;12.48;7.82;;;;;;;;;;2090491;28;20172;-55
2022/05/06 06:27:44;;;;;;;10.10;8.55;;;;;;;;;;2091878;28;20163;-53
2022/05/06 06:28:45;;;;;;;8.07;7.22;;;;;;;;;;2090541;28;20214;-54